createdAt,value
2018-05-26T00:01:45.432Z,16.50
2018-05-26T00:06:36.349Z,16.40
2018-05-26T00:11:27.252Z,16.30
2018-05-26T00:16:18.197Z,16.20
2018-05-26T00:21:09.108Z,16.10
2018-05-26T00:26:00.013Z,16.00
2018-05-26T00:30:50.925Z,15.90
2018-05-26T00:35:41.851Z,15.80
2018-05-26T00:40:32.764Z,15.70
2018-05-26T00:45:23.670Z,15.60
2018-05-26T00:50:14.600Z,15.50
2018-05-26T00:55:05.538Z,15.40
2018-05-26T00:59:56.459Z,15.30
2018-05-26T01:04:47.482Z,15.20
2018-05-26T01:09:38.503Z,15.20
2018-05-26T01:14:29.407Z,15.10
2018-05-26T01:19:20.296Z,15.00
2018-05-26T01:24:11.629Z,14.90
2018-05-26T01:29:02.537Z,14.80
2018-05-26T01:33:53.438Z,14.70
2018-05-26T01:38:45.128Z,14.50
2018-05-26T01:43:36.019Z,14.50
2018-05-26T01:48:33.895Z,14.50
2018-05-26T01:53:24.854Z,14.40
2018-05-26T01:58:15.779Z,14.30
2018-05-26T02:03:06.673Z,14.20
2018-05-26T02:07:57.600Z,14.10
2018-05-26T02:12:48.504Z,14.00
2018-05-26T02:17:39.411Z,14.00
2018-05-26T02:22:30.331Z,13.90
2018-05-26T02:27:21.271Z,13.80
2018-05-26T02:32:12.201Z,13.70
2018-05-26T02:37:03.088Z,13.70
2018-05-26T02:41:53.977Z,13.60
2018-05-26T02:46:45.714Z,13.50
2018-05-26T02:51:37.404Z,13.40
2018-05-26T02:56:28.335Z,13.40
2018-05-26T03:01:19.249Z,13.40
2018-05-26T03:06:16.247Z,13.30
2018-05-26T03:11:14.012Z,13.10
2018-05-26T03:16:19.993Z,13.10
2018-05-26T03:21:11.627Z,13.00
2018-05-26T03:26:03.281Z,13.00
2018-05-26T03:30:54.244Z,13.00
2018-05-26T03:35:45.128Z,12.90
2018-05-26T03:40:36.030Z,12.90
2018-05-26T03:45:27.014Z,12.90
2018-05-26T03:50:17.904Z,12.90
2018-05-26T04:00:35.643Z,12.90
2018-05-26T04:05:27.292Z,12.90
2018-05-26T04:10:18.245Z,12.80
2018-05-26T04:15:09.147Z,12.90
2018-05-26T04:20:00.054Z,12.90
2018-05-26T04:24:50.945Z,12.90
2018-05-26T04:29:42.613Z,13.00
2018-05-26T04:34:33.534Z,12.90
2018-05-26T04:39:24.434Z,13.00
2018-05-26T04:44:15.359Z,13.10
2018-05-26T04:49:06.341Z,13.10
2018-05-26T04:53:57.250Z,13.20
2018-05-26T04:58:48.270Z,13.30
2018-05-26T05:03:39.176Z,13.40
2018-05-26T05:08:30.072Z,13.50
2018-05-26T05:13:21.025Z,13.70
2018-05-26T05:18:11.963Z,13.80
2018-05-26T05:23:02.826Z,13.90
2018-05-26T05:27:53.725Z,14.00
2018-05-26T05:32:44.617Z,14.20
2018-05-26T05:37:35.595Z,14.30
2018-05-26T05:42:26.543Z,14.50
2018-05-26T05:47:17.450Z,14.70
2018-05-26T05:52:08.370Z,14.90
2018-05-26T05:57:00.008Z,15.40
2018-05-26T06:01:50.909Z,15.30
2018-05-26T06:06:41.844Z,15.50
2018-05-26T06:11:32.747Z,15.70
2018-05-26T06:16:23.664Z,15.90
2018-05-26T06:21:14.588Z,16.20
2018-05-26T06:26:05.489Z,16.40
2018-05-26T06:30:56.443Z,16.60
2018-05-26T06:35:47.486Z,16.80
2018-05-26T06:40:39.138Z,17.20
2018-05-26T06:45:30.127Z,17.20
2018-05-26T06:50:21.051Z,17.40
2018-05-26T06:55:11.971Z,17.60
2018-05-26T07:00:02.860Z,17.80
2018-05-26T07:04:53.766Z,18.00
2018-05-26T07:09:44.700Z,18.30
2018-05-26T07:14:35.615Z,18.50
2018-05-26T07:19:26.554Z,18.90
2018-05-26T07:24:17.552Z,19.20
2018-05-26T07:29:08.456Z,19.60
2018-05-26T07:33:59.368Z,20.00
2018-05-26T07:38:50.254Z,20.40
2018-05-26T07:43:41.894Z,21.00
2018-05-26T07:48:33.548Z,21.30
2018-05-26T07:53:24.445Z,21.30
2018-05-26T07:58:16.329Z,21.80
2018-05-26T08:03:07.911Z,22.00
2018-05-26T08:07:59.622Z,22.10
2018-05-26T08:12:50.523Z,22.10
2018-05-26T08:17:41.428Z,22.20
2018-05-26T08:22:32.385Z,22.40
2018-05-26T08:27:23.388Z,22.50
2018-05-26T08:32:14.284Z,22.60
2018-05-26T08:37:05.239Z,22.60
2018-05-26T08:41:56.263Z,22.70
2018-05-26T08:46:47.175Z,22.80
2018-05-26T08:51:38.089Z,22.80
2018-05-26T08:56:29.221Z,22.90
2018-05-26T09:01:20.258Z,22.90
2018-05-26T09:06:11.927Z,23.00
2018-05-26T09:11:02.903Z,23.00
2018-05-26T09:15:53.931Z,23.10
2018-05-26T09:20:44.845Z,23.10
2018-05-26T09:25:35.776Z,23.20
2018-05-26T09:30:26.830Z,23.20
2018-05-26T09:35:17.748Z,23.20
2018-05-26T09:40:08.935Z,23.20
2018-05-26T09:44:59.828Z,23.30
2018-05-26T09:49:50.766Z,23.30
2018-05-26T09:54:41.768Z,23.30
2018-05-26T09:59:32.702Z,23.40
2018-05-26T10:04:23.680Z,23.50
2018-05-26T10:09:14.539Z,23.50
2018-05-26T10:14:05.453Z,23.60
2018-05-26T10:18:56.488Z,23.70
2018-05-26T10:23:47.495Z,23.70
2018-05-26T10:28:38.492Z,23.90
2018-05-26T10:33:29.430Z,24.00
2018-05-26T10:38:20.552Z,24.10
2018-05-26T10:43:11.468Z,24.30
2018-05-26T10:48:02.372Z,24.50
2018-05-26T10:52:53.295Z,24.70
2018-05-26T10:57:44.200Z,25.00
2018-05-26T11:02:35.096Z,25.30
2018-05-26T11:07:25.984Z,25.50
2018-05-26T11:12:16.877Z,25.80
2018-05-26T11:17:08.674Z,26.00
2018-05-26T11:21:59.635Z,26.00
2018-05-26T11:26:50.531Z,26.20
2018-05-26T11:31:41.443Z,26.50
2018-05-26T11:36:32.389Z,26.90
2018-05-26T11:41:23.314Z,27.40
2018-05-26T11:46:14.234Z,28.00
2018-05-26T11:51:05.129Z,28.60
2018-05-26T11:55:56.050Z,29.20
2018-05-26T12:00:46.992Z,29.70
2018-05-26T12:05:38.009Z,30.10
2018-05-26T12:10:28.978Z,30.30
2018-05-26T12:15:20.055Z,30.30
2018-05-26T12:20:10.960Z,30.20
2018-05-26T12:25:01.881Z,30.10
2018-05-26T12:29:52.786Z,30.10
2018-05-26T12:34:43.709Z,30.10
2018-05-26T12:39:34.608Z,30.50
2018-05-26T12:44:25.514Z,30.90
2018-05-26T12:49:16.404Z,31.50
2018-05-26T12:54:08.054Z,32.10
2018-05-26T12:58:59.768Z,32.30
2018-05-26T13:03:51.431Z,32.40
2018-05-26T13:08:42.426Z,32.40
2018-05-26T13:13:33.420Z,32.50
2018-05-26T13:18:24.360Z,32.70
2018-05-26T13:23:15.282Z,32.90
2018-05-26T13:28:06.298Z,32.90
2018-05-26T13:32:57.307Z,33.10
2018-05-26T13:37:48.243Z,33.20
2018-05-26T13:42:39.249Z,33.30
2018-05-26T13:47:30.153Z,33.40
2018-05-26T13:52:21.138Z,33.40
2018-05-26T13:57:12.011Z,33.40
2018-05-26T14:02:03.012Z,33.40
2018-05-26T14:06:53.923Z,33.40
2018-05-26T14:11:44.830Z,33.50
2018-05-26T14:16:35.796Z,33.60
2018-05-26T14:21:26.982Z,33.70
2018-05-26T14:26:17.876Z,33.80
2018-05-26T14:31:08.843Z,33.60
2018-05-26T14:35:59.736Z,33.40
2018-05-26T14:40:50.714Z,33.10
2018-05-26T14:45:42.349Z,32.50
2018-05-26T14:50:33.992Z,32.20
2018-05-26T14:55:24.894Z,32.20
2018-05-26T15:00:16.543Z,31.80
2018-05-26T15:05:07.470Z,31.80
2018-05-26T15:09:58.381Z,31.70
2018-05-26T15:14:49.348Z,31.60
2018-05-26T15:19:40.267Z,31.60
2018-05-26T15:24:31.212Z,31.50
2018-05-26T15:29:22.113Z,31.40
2018-05-26T15:34:13.040Z,31.20
2018-05-26T15:39:03.954Z,31.10
2018-05-26T15:43:56.335Z,30.70
2018-05-26T15:48:47.976Z,30.50
2018-05-26T15:53:39.654Z,30.30
2018-05-26T15:58:30.592Z,30.30
2018-05-26T16:03:21.533Z,30.20
2018-05-26T16:08:12.556Z,29.90
2018-05-26T16:13:04.195Z,29.60
2018-05-26T16:17:55.842Z,29.50
2018-05-26T16:22:47.598Z,29.30
2018-05-26T16:27:38.547Z,29.30
2018-05-26T16:32:29.486Z,29.10
2018-05-26T16:37:20.388Z,29.00
2018-05-26T16:42:11.289Z,28.80
2018-05-26T16:47:02.181Z,28.60
2018-05-26T16:51:53.107Z,28.40
2018-05-26T16:56:44.008Z,28.20
2018-05-26T17:01:35.003Z,27.90
2018-05-26T17:06:27.444Z,27.40
2018-05-26T17:11:18.339Z,27.40
2018-05-26T17:16:09.238Z,27.10
2018-05-26T17:21:00.145Z,26.80
2018-05-26T17:25:51.070Z,26.60
2018-05-26T17:30:42.036Z,26.30
2018-05-26T17:35:32.940Z,26.00
2018-05-26T17:40:23.862Z,25.80
2018-05-26T17:45:14.808Z,25.60
2018-05-26T17:50:05.741Z,25.40
2018-05-26T17:54:57.418Z,25.00
2018-05-26T17:59:48.315Z,25.00
2018-05-26T18:04:39.286Z,24.80
2018-05-26T18:09:30.216Z,24.70
2018-05-26T18:14:21.100Z,24.50
2018-05-26T18:19:12.035Z,24.40
2018-05-26T18:24:02.964Z,24.20
2018-05-26T18:28:53.880Z,24.10
2018-05-26T18:33:44.794Z,23.90
2018-05-26T18:38:35.724Z,23.80
2018-05-26T18:43:26.629Z,23.60
2018-05-26T18:48:17.550Z,23.50
2018-05-26T18:53:08.472Z,23.30
2018-05-26T18:57:59.378Z,23.10
2018-05-26T19:02:50.294Z,23.00
2018-05-26T19:07:41.217Z,22.80
2018-05-26T19:12:32.109Z,22.60
2018-05-26T19:17:22.995Z,22.50
2018-05-26T19:22:14.628Z,22.10
2018-05-26T19:27:06.282Z,21.90
2018-05-26T19:31:57.244Z,21.90
2018-05-26T19:36:48.144Z,21.80
2018-05-26T19:41:39.076Z,21.60
2018-05-26T19:46:29.978Z,21.50
2018-05-26T19:51:20.869Z,21.40
2018-05-26T19:56:11.767Z,21.30
2018-05-26T20:01:03.415Z,21.00
2018-05-26T20:05:55.081Z,20.90
2018-05-26T20:10:45.991Z,20.90
2018-05-26T20:15:36.967Z,20.80
2018-05-26T20:20:28.642Z,20.70
2018-05-26T20:25:19.549Z,20.60
2018-05-26T20:30:11.244Z,20.60
2018-05-26T20:35:02.145Z,20.50
2018-05-26T20:39:53.115Z,20.50
2018-05-26T20:44:44.783Z,20.30
2018-05-26T20:49:35.759Z,20.30
2018-05-26T20:54:27.487Z,20.00
2018-05-26T20:59:18.500Z,20.00
2018-05-26T21:04:09.685Z,19.90
2018-05-26T21:09:00.698Z,19.70
2018-05-26T21:13:51.610Z,19.60
2018-05-26T21:18:42.576Z,19.50
2018-05-26T21:23:33.510Z,19.40
2018-05-26T21:28:24.546Z,19.20
2018-05-26T21:33:16.256Z,19.00
2018-05-26T21:38:07.173Z,19.00
2018-05-26T21:42:58.073Z,18.90
2018-05-26T21:47:49.031Z,18.70
2018-05-26T21:52:39.929Z,18.60
2018-05-26T21:57:30.840Z,18.50
2018-05-26T22:02:21.782Z,18.40
2018-05-26T22:07:13.516Z,18.10
2018-05-26T22:12:04.417Z,18.10
2018-05-26T22:16:55.349Z,18.00
2018-05-26T22:21:46.256Z,17.90
2018-05-26T22:26:37.173Z,17.80
2018-05-26T22:31:28.107Z,17.70
2018-05-26T22:36:20.492Z,17.50
2018-05-26T22:41:12.203Z,17.40
2018-05-26T22:46:03.123Z,17.40
2018-05-26T22:50:54.039Z,17.30
2018-05-26T22:55:45.002Z,17.20
2018-05-26T23:00:35.900Z,17.10
2018-05-26T23:05:27.602Z,17.00
2018-05-26T23:10:18.511Z,16.90
2018-05-26T23:15:09.539Z,16.90
2018-05-26T23:20:00.458Z,16.80
2018-05-26T23:24:51.383Z,16.70
2018-05-26T23:29:42.285Z,16.60
2018-05-26T23:34:33.218Z,16.50
2018-05-26T23:39:24.124Z,16.50
2018-05-26T23:44:15.035Z,16.40
2018-05-26T23:49:05.933Z,16.30
2018-05-26T23:53:56.871Z,16.30
2018-05-26T23:58:47.807Z,16.20
